createdAt,value
2017-07-08T00:01:17.658Z,18.20
2017-07-08T00:03:46.140Z,18.20
2017-07-08T00:06:15.358Z,18.10
2017-07-08T00:08:44.080Z,18.10
2017-07-08T00:11:13.218Z,18.10
2017-07-08T00:14:45.331Z,18.20
2017-07-08T00:17:13.836Z,18.10
2017-07-08T00:19:42.404Z,18.10
2017-07-08T00:22:10.946Z,18.10
2017-07-08T00:24:39.591Z,18.10
2017-07-08T00:27:08.655Z,18.10
2017-07-08T00:29:37.459Z,18.10
2017-07-08T00:32:06.027Z,18.10
2017-07-08T00:34:34.639Z,18.10
2017-07-08T00:37:03.154Z,18.00
2017-07-08T00:39:31.641Z,18.00
2017-07-08T00:42:00.097Z,17.90
2017-07-08T00:44:28.765Z,18.00
2017-07-08T00:46:57.253Z,17.90
2017-07-08T00:49:26.214Z,17.90
2017-07-08T00:51:54.722Z,18.00
2017-07-08T00:54:23.208Z,18.00
2017-07-08T00:56:51.671Z,18.00
2017-07-08T00:59:20.472Z,18.00
2017-07-08T01:01:48.977Z,18.00
2017-07-08T01:04:17.437Z,17.90
2017-07-08T01:06:46.441Z,18.00
2017-07-08T01:09:15.138Z,17.90
2017-07-08T01:11:43.671Z,17.90
2017-07-08T01:14:12.935Z,17.80
2017-07-08T01:16:41.587Z,17.80
2017-07-08T01:19:10.086Z,17.90
2017-07-08T01:21:38.727Z,17.90
2017-07-08T01:24:07.360Z,17.90
2017-07-08T01:26:35.920Z,17.80
2017-07-08T01:29:04.495Z,17.80
2017-07-08T01:31:34.445Z,17.80
2017-07-08T01:34:03.009Z,17.70
2017-07-08T01:36:31.473Z,17.80
2017-07-08T01:39:00.670Z,17.80
2017-07-08T01:41:29.169Z,17.80
2017-07-08T01:43:57.779Z,17.80
2017-07-08T01:46:26.299Z,17.80
2017-07-08T01:48:54.852Z,17.80
2017-07-08T01:51:23.821Z,17.70
2017-07-08T01:53:52.359Z,17.60
2017-07-08T01:56:20.933Z,17.70
2017-07-08T01:58:49.424Z,17.60
2017-07-08T02:01:17.907Z,17.60
2017-07-08T02:03:46.479Z,17.60
2017-07-08T02:06:14.992Z,17.60
2017-07-08T02:08:43.489Z,17.60
2017-07-08T02:11:12.108Z,17.60
2017-07-08T02:13:40.604Z,17.60
2017-07-08T02:16:09.320Z,17.60
2017-07-08T02:18:38.870Z,17.60
2017-07-08T02:21:07.396Z,17.60
2017-07-08T02:23:35.984Z,17.60
2017-07-08T02:26:04.486Z,17.50
2017-07-08T02:28:33.140Z,17.60
2017-07-08T02:31:01.655Z,17.40
2017-07-08T02:33:30.102Z,17.50
2017-07-08T02:35:58.826Z,17.50
2017-07-08T02:38:27.514Z,17.40
2017-07-08T02:40:56.030Z,17.60
2017-07-08T02:43:25.068Z,17.50
2017-07-08T02:45:53.735Z,17.50
2017-07-08T02:48:22.221Z,17.50
2017-07-08T02:50:50.681Z,17.50
2017-07-08T02:53:19.467Z,17.50
2017-07-08T02:55:47.997Z,17.40
2017-07-08T02:58:16.652Z,17.40
2017-07-08T03:00:45.443Z,17.40
2017-07-08T03:03:14.332Z,17.30
2017-07-08T03:05:42.830Z,17.30
2017-07-08T03:08:11.373Z,17.30
2017-07-08T03:10:39.833Z,17.20
2017-07-08T03:13:09.044Z,17.30
2017-07-08T03:15:38.389Z,17.30
2017-07-08T03:18:06.952Z,17.20
2017-07-08T03:20:35.643Z,17.30
2017-07-08T03:23:04.276Z,17.30
2017-07-08T03:25:32.793Z,17.20
2017-07-08T03:28:01.726Z,17.30
2017-07-08T03:30:30.214Z,17.30
2017-07-08T03:32:58.785Z,17.30
2017-07-08T03:35:27.469Z,17.40
2017-07-08T03:37:56.086Z,17.30
2017-07-08T03:40:25.353Z,17.40
2017-07-08T03:42:53.836Z,17.30
2017-07-08T03:45:22.296Z,17.40
2017-07-08T03:47:50.782Z,17.40
2017-07-08T03:50:19.595Z,17.30
2017-07-08T03:52:49.200Z,17.40
2017-07-08T03:55:18.009Z,17.40
2017-07-08T03:57:46.676Z,17.40
2017-07-08T04:00:15.351Z,17.40
2017-07-08T04:02:44.002Z,17.40
2017-07-08T04:05:12.546Z,17.40
2017-07-08T04:07:41.021Z,17.40
2017-07-08T04:10:09.729Z,17.40
2017-07-08T04:12:38.202Z,17.40
2017-07-08T04:15:06.769Z,17.40
2017-07-08T04:17:36.577Z,17.40
2017-07-08T04:20:05.186Z,17.40
2017-07-08T04:22:33.673Z,17.40
2017-07-08T04:25:02.147Z,17.40
2017-07-08T04:27:30.868Z,17.40
2017-07-08T04:29:59.509Z,17.50
2017-07-08T04:32:28.116Z,17.50
2017-07-08T04:34:56.834Z,17.50
2017-07-08T04:37:26.096Z,17.40
2017-07-08T04:39:54.666Z,17.30
2017-07-08T04:42:23.558Z,17.40
2017-07-08T04:44:52.398Z,17.50
2017-07-08T04:47:20.905Z,17.50
2017-07-08T04:49:49.473Z,17.50
2017-07-08T04:52:17.965Z,17.60
2017-07-08T04:54:46.470Z,17.50
2017-07-08T04:57:14.938Z,17.50
2017-07-08T04:59:43.474Z,17.50
2017-07-08T05:02:12.383Z,17.60
2017-07-08T05:04:41.678Z,17.60
2017-07-08T05:07:10.376Z,17.50
2017-07-08T05:09:38.817Z,17.60
2017-07-08T05:12:07.720Z,17.60
2017-07-08T05:14:36.185Z,17.60
2017-07-08T05:17:05.276Z,17.60
2017-07-08T05:19:33.966Z,17.60
2017-07-08T05:22:02.651Z,17.60
2017-07-08T05:24:31.235Z,17.60
2017-07-08T05:26:59.722Z,17.80
2017-07-08T05:29:28.386Z,17.70
2017-07-08T05:31:57.181Z,17.70
2017-07-08T05:34:25.793Z,17.70
2017-07-08T05:36:54.425Z,17.70
2017-07-08T05:39:22.918Z,17.70
2017-07-08T05:41:52.564Z,17.70
2017-07-08T05:44:21.657Z,17.70
2017-07-08T05:46:50.397Z,17.70
2017-07-08T05:49:18.892Z,17.80
2017-07-08T05:51:48.145Z,17.80
2017-07-08T05:54:16.737Z,17.70
2017-07-08T05:56:45.274Z,17.80
2017-07-08T05:59:14.069Z,17.90
2017-07-08T06:01:42.677Z,18.00
2017-07-08T06:04:11.574Z,18.20
2017-07-08T06:06:40.102Z,18.30
2017-07-08T06:09:10.705Z,18.20
2017-07-08T06:11:39.271Z,18.20
2017-07-08T06:14:07.985Z,18.30
2017-07-08T06:16:36.634Z,18.40
2017-07-08T06:19:05.085Z,18.40
2017-07-08T06:21:36.273Z,18.60
2017-07-08T06:24:04.948Z,18.70
2017-07-08T06:26:33.401Z,18.80
2017-07-08T06:29:01.950Z,18.80
2017-07-08T06:31:30.448Z,19.00
2017-07-08T06:33:59.277Z,18.90
2017-07-08T06:36:27.862Z,18.90
2017-07-08T06:38:56.560Z,18.80
2017-07-08T06:41:25.180Z,18.80
2017-07-08T06:43:53.659Z,18.90
2017-07-08T06:46:22.147Z,19.00
2017-07-08T06:48:50.644Z,19.20
2017-07-08T06:51:19.232Z,19.30
2017-07-08T06:53:47.765Z,19.50
2017-07-08T06:56:16.252Z,19.60
2017-07-08T06:58:45.113Z,19.70
2017-07-08T07:01:13.809Z,19.80
2017-07-08T07:03:42.280Z,20.00
2017-07-08T07:06:10.733Z,20.00
2017-07-08T07:08:39.494Z,20.10
2017-07-08T07:11:07.985Z,20.10
2017-07-08T07:13:36.590Z,19.90
2017-07-08T07:16:07.265Z,20.80
2017-07-08T07:18:35.226Z,20.70
2017-07-08T07:21:03.968Z,21.40
2017-07-08T07:23:32.437Z,22.00
2017-07-08T07:26:00.261Z,22.80
2017-07-08T07:28:28.149Z,23.70
2017-07-08T07:30:56.137Z,24.00
2017-07-08T07:33:24.096Z,24.50
2017-07-08T07:35:52.107Z,25.20
2017-07-08T07:38:20.130Z,26.30
2017-07-08T07:40:52.157Z,26.30
2017-07-08T07:43:20.052Z,26.50
2017-07-08T07:45:48.147Z,26.00
2017-07-08T07:48:16.021Z,27.40
2017-07-08T07:50:43.910Z,26.70
2017-07-08T07:53:12.165Z,25.70
2017-07-08T07:55:40.156Z,25.50
2017-07-08T07:58:07.993Z,25.60
2017-07-08T08:00:35.886Z,25.30
2017-07-08T08:03:04.148Z,26.10
2017-07-08T08:05:32.081Z,27.00
2017-07-08T08:08:02.365Z,26.90
2017-07-08T08:10:30.389Z,27.80
2017-07-08T08:12:58.306Z,27.90
2017-07-08T08:15:26.150Z,28.30
2017-07-08T08:17:54.095Z,28.80
2017-07-08T08:20:22.061Z,27.90
2017-07-08T08:22:50.024Z,28.00
2017-07-08T08:25:17.905Z,28.60
2017-07-08T08:27:45.770Z,27.50
2017-07-08T08:30:13.617Z,27.40
2017-07-08T08:32:41.479Z,27.40
2017-07-08T08:35:09.682Z,27.60
2017-07-08T08:37:37.599Z,27.40
2017-07-08T08:40:05.847Z,26.60
2017-07-08T08:42:33.927Z,27.20
2017-07-08T08:45:02.494Z,28.00
2017-07-08T08:47:30.409Z,27.40
2017-07-08T08:49:58.339Z,26.70
2017-07-08T08:52:26.350Z,27.10
2017-07-08T08:54:54.955Z,27.20
2017-07-08T08:57:23.265Z,27.20
2017-07-08T08:59:51.683Z,27.40
2017-07-08T09:02:19.522Z,27.20
2017-07-08T09:04:47.724Z,27.90
2017-07-08T09:07:16.255Z,28.40
2017-07-08T09:09:44.148Z,28.20
2017-07-08T09:12:12.136Z,26.90
2017-07-08T09:14:40.020Z,26.50
2017-07-08T09:17:08.383Z,27.20
2017-07-08T09:19:36.834Z,27.30
2017-07-08T09:22:04.725Z,27.30
2017-07-08T09:24:32.611Z,27.40
2017-07-08T09:27:00.479Z,27.60
2017-07-08T09:29:28.389Z,28.50
2017-07-08T09:31:56.293Z,28.70
2017-07-08T09:34:24.221Z,28.70
2017-07-08T09:36:52.145Z,29.30
2017-07-08T09:39:19.992Z,29.20
2017-07-08T09:41:47.974Z,29.10
2017-07-08T09:44:16.405Z,27.90
2017-07-08T09:46:45.077Z,26.80
2017-07-08T09:49:12.984Z,25.90
2017-07-08T09:51:41.048Z,25.60
2017-07-08T09:54:09.860Z,25.60
2017-07-08T09:56:37.826Z,25.90
2017-07-08T09:59:05.891Z,26.20
2017-07-08T10:01:33.792Z,26.20
2017-07-08T10:04:03.372Z,25.60
2017-07-08T10:06:31.319Z,25.80
2017-07-08T10:08:59.181Z,26.00
2017-07-08T10:11:27.910Z,25.30
2017-07-08T10:13:55.951Z,26.00
2017-07-08T10:16:23.895Z,25.40
2017-07-08T10:18:51.813Z,25.30
2017-07-08T10:21:20.133Z,25.60
2017-07-08T10:23:50.141Z,25.40
2017-07-08T10:26:18.100Z,25.30
2017-07-08T10:28:46.045Z,25.00
2017-07-08T10:31:13.902Z,24.90
2017-07-08T10:33:41.974Z,24.40
2017-07-08T10:36:09.901Z,23.90
2017-07-08T10:38:38.567Z,24.80
2017-07-08T10:41:06.904Z,24.70
2017-07-08T10:43:34.878Z,24.80
2017-07-08T10:46:03.327Z,24.60
2017-07-08T10:48:31.464Z,24.50
2017-07-08T10:50:59.454Z,24.90
2017-07-08T10:53:28.123Z,26.50
2017-07-08T10:55:55.994Z,26.40
2017-07-08T10:58:24.026Z,27.10
2017-07-08T11:00:52.008Z,27.50
2017-07-08T11:03:20.249Z,27.50
2017-07-08T11:05:48.340Z,26.90
2017-07-08T11:08:16.209Z,26.30
2017-07-08T11:10:44.468Z,25.80
2017-07-08T11:13:12.326Z,25.30
2017-07-08T11:15:40.926Z,24.40
2017-07-08T11:18:09.011Z,24.30
2017-07-08T11:20:36.916Z,24.20
2017-07-08T11:23:06.434Z,24.00
2017-07-08T11:25:35.258Z,23.80
2017-07-08T11:28:04.080Z,23.90
2017-07-08T11:30:32.565Z,23.80
2017-07-08T11:33:01.079Z,23.80
2017-07-08T11:35:29.605Z,23.60
2017-07-08T11:37:58.190Z,23.60
2017-07-08T11:40:26.959Z,23.80
2017-07-08T11:42:56.519Z,23.50
2017-07-08T11:45:25.297Z,23.40
2017-07-08T11:47:53.801Z,23.80
2017-07-08T11:50:22.802Z,23.70
2017-07-08T11:52:52.861Z,23.70
